sensor_id;sensor_type;location;lat;lon;timestamp;P1;durP1;ratioP1;P2;durP2;ratioP2
76705;SDS011;74356;44.392;0.314;2024-02-21T00:10:25;14.27;;;7.47;;
76705;SDS011;74356;44.392;0.314;2024-02-21T00:25:44;22.23;;;7.37;;
76705;SDS011;74356;44.392;0.314;2024-02-21T00:41:05;14.03;;;6.83;;
76705;SDS011;74356;44.392;0.314;2024-02-21T00:56:23;22.57;;;6.00;;
76705;SDS011;74356;44.392;0.314;2024-02-21T01:11:44;13.80;;;5.17;;
76705;SDS011;74356;44.392;0.314;2024-02-21T01:27:02;15.97;;;7.50;;
76705;SDS011;74356;44.392;0.314;2024-02-21T01:42:22;15.97;;;7.80;;
76705;SDS011;74356;44.392;0.314;2024-02-21T01:57:43;12.47;;;6.57;;
76705;SDS011;74356;44.392;0.314;2024-02-21T02:13:01;9.37;;;5.43;;
76705;SDS011;74356;44.392;0.314;2024-02-21T02:28:21;14.80;;;5.43;;
76705;SDS011;74356;44.392;0.314;2024-02-21T02:43:40;12.90;;;6.67;;
76705;SDS011;74356;44.392;0.314;2024-02-21T02:58:59;10.33;;;5.33;;
76705;SDS011;74356;44.392;0.314;2024-02-21T03:14:19;13.03;;;5.97;;
76705;SDS011;74356;44.392;0.314;2024-02-21T03:29:39;12.90;;;4.40;;
76705;SDS011;74356;44.392;0.314;2024-02-21T03:45:00;8.03;;;4.50;;
76705;SDS011;74356;44.392;0.314;2024-02-21T04:00:20;16.73;;;6.57;;
76705;SDS011;74356;44.392;0.314;2024-02-21T04:15:38;16.30;;;5.07;;
76705;SDS011;74356;44.392;0.314;2024-02-21T04:31:00;12.17;;;5.03;;
76705;SDS011;74356;44.392;0.314;2024-02-21T04:46:20;8.13;;;3.87;;
76705;SDS011;74356;44.392;0.314;2024-02-21T05:01:39;11.77;;;4.83;;
76705;SDS011;74356;44.392;0.314;2024-02-21T05:17:00;9.07;;;3.90;;
76705;SDS011;74356;44.392;0.314;2024-02-21T05:32:19;14.30;;;5.63;;
76705;SDS011;74356;44.392;0.314;2024-02-21T05:47:39;8.90;;;4.87;;
76705;SDS011;74356;44.392;0.314;2024-02-21T06:02:59;11.67;;;5.83;;
76705;SDS011;74356;44.392;0.314;2024-02-21T06:18:18;19.40;;;6.40;;
76705;SDS011;74356;44.392;0.314;2024-02-21T06:33:38;6.77;;;3.10;;
76705;SDS011;74356;44.392;0.314;2024-02-21T06:48:58;8.77;;;4.20;;
76705;SDS011;74356;44.392;0.314;2024-02-21T07:04:18;16.23;;;6.60;;
76705;SDS011;74356;44.392;0.314;2024-02-21T07:19:38;7.93;;;3.37;;
76705;SDS011;74356;44.392;0.314;2024-02-21T07:34:59;9.47;;;4.13;;
76705;SDS011;74356;44.392;0.314;2024-02-21T07:50:20;8.67;;;4.07;;
76705;SDS011;74356;44.392;0.314;2024-02-21T08:05:41;9.23;;;4.57;;
76705;SDS011;74356;44.392;0.314;2024-02-21T08:21:03;14.30;;;4.60;;
76705;SDS011;74356;44.392;0.314;2024-02-21T08:36:24;7.47;;;4.40;;
76705;SDS011;74356;44.392;0.314;2024-02-21T08:51:44;9.50;;;4.93;;
76705;SDS011;74356;44.392;0.314;2024-02-21T09:07:04;14.10;;;3.53;;
76705;SDS011;74356;44.392;0.314;2024-02-21T09:22:24;6.20;;;3.60;;
76705;SDS011;74356;44.392;0.314;2024-02-21T09:37:43;6.57;;;3.97;;
76705;SDS011;74356;44.392;0.314;2024-02-21T09:53:04;11.07;;;4.63;;
76705;SDS011;74356;44.392;0.314;2024-02-21T10:08:24;9.77;;;4.97;;
76705;SDS011;74356;44.392;0.314;2024-02-21T10:23:47;11.73;;;5.90;;
76705;SDS011;74356;44.392;0.314;2024-02-21T10:39:06;7.97;;;5.93;;
76705;SDS011;74356;44.392;0.314;2024-02-21T10:54:32;6.17;;;4.13;;
76705;SDS011;74356;44.392;0.314;2024-02-21T11:09:50;7.60;;;2.67;;
76705;SDS011;74356;44.392;0.314;2024-02-21T11:25:12;4.30;;;2.60;;
76705;SDS011;74356;44.392;0.314;2024-02-21T11:40:29;5.47;;;2.60;;
76705;SDS011;74356;44.392;0.314;2024-02-21T11:55:49;4.07;;;2.60;;
76705;SDS011;74356;44.392;0.314;2024-02-21T12:11:15;5.07;;;2.00;;
76705;SDS011;74356;44.392;0.314;2024-02-21T12:26:30;-1.00;;;-1.00;;
76705;SDS011;74356;44.392;0.314;2024-02-21T12:41:50;2.27;;;1.47;;
76705;SDS011;74356;44.392;0.314;2024-02-21T12:57:11;8.30;;;2.20;;
76705;SDS011;74356;44.392;0.314;2024-02-21T13:12:31;4.40;;;2.90;;
76705;SDS011;74356;44.392;0.314;2024-02-21T13:27:51;4.27;;;1.93;;
76705;SDS011;74356;44.392;0.314;2024-02-21T13:43:09;5.50;;;1.57;;
76705;SDS011;74356;44.392;0.314;2024-02-21T13:58:28;3.90;;;1.60;;
76705;SDS011;74356;44.392;0.314;2024-02-21T14:13:48;3.70;;;1.60;;
76705;SDS011;74356;44.392;0.314;2024-02-21T14:29:06;8.63;;;2.13;;
76705;SDS011;74356;44.392;0.314;2024-02-21T14:44:26;2.93;;;1.20;;
76705;SDS011;74356;44.392;0.314;2024-02-21T14:59:45;4.90;;;1.80;;
76705;SDS011;74356;44.392;0.314;2024-02-21T15:15:05;1.43;;;0.80;;
76705;SDS011;74356;44.392;0.314;2024-02-21T15:30:25;1.80;;;1.47;;
76705;SDS011;74356;44.392;0.314;2024-02-21T15:45:43;3.23;;;1.33;;
76705;SDS011;74356;44.392;0.314;2024-02-21T16:01:03;3.93;;;1.70;;
76705;SDS011;74356;44.392;0.314;2024-02-21T16:16:22;9.10;;;1.60;;
76705;SDS011;74356;44.392;0.314;2024-02-21T16:31:43;7.07;;;1.83;;
76705;SDS011;74356;44.392;0.314;2024-02-21T16:47:04;4.10;;;1.23;;
76705;SDS011;74356;44.392;0.314;2024-02-21T17:02:22;7.87;;;2.47;;
76705;SDS011;74356;44.392;0.314;2024-02-21T17:17:41;8.07;;;3.73;;
76705;SDS011;74356;44.392;0.314;2024-02-21T17:33:00;12.40;;;6.43;;
76705;SDS011;74356;44.392;0.314;2024-02-21T17:48:19;5.20;;;3.13;;
76705;SDS011;74356;44.392;0.314;2024-02-21T18:03:38;12.60;;;4.70;;
76705;SDS011;74356;44.392;0.314;2024-02-21T18:18:58;10.67;;;5.63;;
76705;SDS011;74356;44.392;0.314;2024-02-21T18:34:19;8.50;;;3.57;;
76705;SDS011;74356;44.392;0.314;2024-02-21T18:49:38;7.50;;;3.80;;
76705;SDS011;74356;44.392;0.314;2024-02-21T19:04:57;5.40;;;3.90;;
76705;SDS011;74356;44.392;0.314;2024-02-21T19:20:17;13.87;;;6.70;;
76705;SDS011;74356;44.392;0.314;2024-02-21T19:35:35;12.83;;;5.10;;
76705;SDS011;74356;44.392;0.314;2024-02-21T19:50:57;10.33;;;4.77;;
76705;SDS011;74356;44.392;0.314;2024-02-21T20:06:15;13.00;;;5.03;;
76705;SDS011;74356;44.392;0.314;2024-02-21T20:21:33;7.53;;;2.13;;
76705;SDS011;74356;44.392;0.314;2024-02-21T20:36:53;9.23;;;2.83;;
76705;SDS011;74356;44.392;0.314;2024-02-21T20:52:14;7.87;;;3.10;;
76705;SDS011;74356;44.392;0.314;2024-02-21T21:07:34;4.33;;;2.93;;
76705;SDS011;74356;44.392;0.314;2024-02-21T21:22:54;9.73;;;4.03;;
76705;SDS011;74356;44.392;0.314;2024-02-21T21:53:32;10.70;;;5.33;;
76705;SDS011;74356;44.392;0.314;2024-02-21T22:08:52;15.53;;;5.90;;
76705;SDS011;74356;44.392;0.314;2024-02-21T22:24:11;11.10;;;5.57;;
76705;SDS011;74356;44.392;0.314;2024-02-21T22:39:31;13.77;;;5.83;;
76705;SDS011;74356;44.392;0.314;2024-02-21T22:54:49;14.00;;;5.70;;
76705;SDS011;74356;44.392;0.314;2024-02-21T23:10:12;18.37;;;8.23;;
76705;SDS011;74356;44.392;0.314;2024-02-21T23:25:32;9.77;;;5.20;;
76705;SDS011;74356;44.392;0.314;2024-02-21T23:40:50;13.50;;;5.30;;
76705;SDS011;74356;44.392;0.314;2024-02-21T23:56:08;10.37;;;3.73;;
